Time;durP1;ratioP1;P1;durP2;ratioP2;P2;SDS_P1;SDS_P2;PMS_P1;PMS_P2;Temp;Humidity;BMP_temperature;BMP_pressure;BME280_temperature;BME280_humidity;BME280_pressure;Samples;Min_cycle;Max_cycle;Signal;HPM_P1;HPM_P2
2022/07/09 00:01:32;;;;;;;44.85;36.50;;;;;;;-143.10;100.00;51090.94;4779750;29;20086;-68
2022/07/09 00:04:14;;;;;;;51.30;36.28;;;;;;;-143.10;100.00;51092.91;4774774;30;20055;-68
2022/07/09 00:07:05;;;;;;;47.65;36.20;;;;;;;-143.10;100.00;51106.63;4782592;30;20148;-69
2022/07/09 00:09:47;;;;;;;57.05;38.10;;;;;;;-143.10;100.00;51104.66;4781851;30;21421;-69
2022/07/09 00:12:37;;;;;;;46.92;37.42;;;;;;;-143.10;100.00;51073.34;4780898;29;20526;-67
2022/07/09 00:15:27;;;;;;;48.30;37.45;;;;;;;-143.10;100.00;51096.81;4778416;29;20560;-64
2022/07/09 00:18:17;;;;;;;44.05;36.28;;;;;;;-143.10;100.00;51073.34;4780052;29;20070;-66
2022/07/09 00:21:01;;;;;;;49.22;37.33;;;;;;;-143.10;100.00;51104.66;4773528;29;20112;-66
2022/07/09 00:23:51;;;;;;;53.15;39.70;;;;;;;-143.10;100.00;51100.75;4777560;29;21408;-67
2022/07/09 00:26:48;;;;;;;51.38;36.22;;;;;;;-143.10;100.00;51081.16;4781916;29;20085;-67
2022/07/09 00:29:24;;;;;;;52.22;39.22;;;;;;;-143.10;100.00;51079.19;4781166;29;20067;-68
2022/07/09 00:32:14;;;;;;;38.08;29.50;;;;;;;-143.10;100.00;51120.31;4778252;29;20559;-67
2022/07/09 00:35:03;;;;;;;46.55;34.88;;;;;;;-143.10;100.00;51092.91;4782037;29;20121;-67
2022/07/09 00:37:45;;;;;;;41.58;34.80;;;;;;;-143.10;100.00;51104.66;4784182;29;20078;-67
2022/07/09 00:40:35;;;;;;;45.83;36.50;;;;;;;-143.10;100.00;51081.16;4799072;29;20435;-65
2022/07/09 00:43:25;;;;;;;48.22;37.65;;;;;;;-143.10;100.00;51089.00;4798536;29;20075;-66
2022/07/09 00:46:08;;;;;;;48.55;38.13;;;;;;;-143.10;100.00;51053.75;4799785;29;20089;-67
2022/07/09 00:49:03;;;;;;;54.08;39.85;;;;;;;-143.10;100.00;51104.66;4800014;29;20154;-67
2022/07/09 00:51:52;;;;;;;50.85;40.22;;;;;;;-143.10;100.00;51081.16;4798524;29;20322;-67
2022/07/09 00:54:51;;;;;;;52.83;40.33;;;;;;;-143.10;100.00;51061.59;4798333;29;20089;-67
2022/07/09 00:57:42;;;;;;;48.95;39.90;;;;;;;-143.10;100.00;51089.00;4799110;29;20371;-67
2022/07/09 01:00:32;;;;;;;52.45;40.65;;;;;;;-143.10;100.00;51073.34;4798816;29;20443;-66
2022/07/09 01:03:23;;;;;;;49.08;38.38;;;;;;;-143.10;100.00;51106.63;4794199;29;20130;-67
2022/07/09 01:06:15;;;;;;;52.03;40.22;;;;;;;-143.10;100.00;51089.00;4780790;29;20083;-67
2022/07/09 01:08:58;;;;;;;50.92;41.30;;;;;;;-143.10;100.00;51100.75;4781685;30;20066;-67
2022/07/09 01:11:48;;;;;;;59.53;43.45;;;;;;;-143.10;100.00;51081.16;4774917;30;20537;-67
2022/07/09 01:14:31;;;;;;;56.15;43.08;;;;;;;-143.10;100.00;51124.22;4773391;29;20107;-67
2022/07/09 01:17:20;;;;;;;51.22;41.78;;;;;;;-143.10;100.00;51126.19;4784611;29;20078;-66
2022/07/09 01:20:11;;;;;;;56.17;41.33;;;;;;;-143.10;100.00;51102.69;4799058;29;20050;-67
2022/07/09 01:23:02;;;;;;;57.17;41.75;;;;;;;-143.10;100.00;51100.75;4798997;29;20078;-67
2022/07/09 01:25:44;;;;;;;59.65;43.00;;;;;;;-143.10;100.00;51108.56;4798605;29;20066;-67
2022/07/09 01:28:34;;;;;;;62.88;43.55;;;;;;;-143.10;100.00;51118.34;4797549;29;20054;-67
2022/07/09 01:31:18;;;;;;;56.38;43.63;;;;;;;-143.10;100.00;51079.19;4796956;29;20600;-67
2022/07/09 01:34:06;;;;;;;65.68;44.25;;;;;;;-143.10;100.00;51124.22;4799252;29;20148;-68
2022/07/09 01:36:49;;;;;;;54.45;44.28;;;;;;;-143.10;100.00;51116.41;4788623;29;20459;-67
2022/07/09 01:39:49;;;;;;;53.28;41.00;;;;;;;-143.10;100.00;51069.41;4780023;30;20383;-67
2022/07/09 01:42:32;;;;;;;54.78;43.78;;;;;;;-143.10;100.00;51089.00;4780234;29;20071;-66
2022/07/09 01:45:23;;;;;;;63.90;45.70;;;;;;;-143.10;100.00;51081.16;4768809;30;20556;-68
2022/07/09 01:48:07;;;;;;;55.20;42.95;;;;;;;-143.10;100.00;51055.72;4765968;30;20075;-67
2022/07/09 01:50:58;;;;;;;61.70;45.65;;;;;;;-143.10;100.00;51096.81;4763368;29;20529;-67
2022/07/09 01:53:48;;;;;;;59.45;44.28;;;;;;;-143.10;100.00;51108.56;4762378;30;20284;-67
2022/07/09 01:56:43;;;;;;;54.10;40.13;;;;;;;-143.10;100.00;51098.78;4762268;30;20112;-67
2022/07/09 01:59:32;;;;;;;48.22;38.03;;;;;;;-143.10;100.00;51085.06;4762698;30;20623;-67
2022/07/09 02:02:23;;;;;;;54.80;39.63;;;;;;;-143.10;100.00;51112.50;4762800;30;20071;-67
2022/07/09 02:05:06;;;;;;;52.47;36.75;;;;;;;-143.10;100.00;51085.06;4779028;29;20078;-68
2022/07/09 02:07:55;;;;;;;50.92;37.28;;;;;;;-143.10;100.00;51075.28;4780052;30;20537;-67
2022/07/09 02:10:38;;;;;;;60.30;37.60;;;;;;;-143.10;100.00;51122.28;4794347;29;20361;-68
2022/07/09 02:13:28;;;;;;;48.85;34.28;;;;;;;-143.10;100.00;51090.94;4762027;29;20503;-67
2022/07/09 02:16:11;;;;;;;44.80;32.90;;;;;;;-143.10;100.00;51063.53;4796531;29;20082;-67
2022/07/09 02:19:01;;;;;;;40.88;33.22;;;;;;;-143.10;100.00;51065.50;4788193;29;20812;-67
2022/07/09 02:21:44;;;;;;;44.47;32.92;;;;;;;-143.10;100.00;51077.25;4786441;29;20143;-67
2022/07/09 02:24:34;;;;;;;42.90;33.30;;;;;;;-143.10;100.00;51092.91;4782913;29;20565;-66
2022/07/09 02:27:17;;;;;;;43.25;32.53;;;;;;;-143.10;100.00;51104.66;4783478;30;20066;-68
2022/07/09 02:30:06;;;;;;;41.70;33.15;;;;;;;-143.10;100.00;51079.19;4784231;29;20080;-67
2022/07/09 02:32:49;;;;;;;45.95;34.50;;;;;;;-143.10;100.00;51096.81;4783304;30;20340;-68
2022/07/09 02:35:39;;;;;;;43.58;34.17;;;;;;;-143.10;100.00;51065.50;4783558;29;20360;-67
2022/07/09 02:38:23;;;;;;;47.60;34.40;;;;;;;-143.10;100.00;51073.34;4783490;29;20083;-67
2022/07/09 02:41:12;;;;;;;43.95;32.33;;;;;;;-143.10;100.00;51073.34;4782825;29;20148;-67
2022/07/09 02:43:55;;;;;;;38.75;27.13;;;;;;;-143.10;100.00;51077.25;4766006;30;20144;-67
2022/07/09 02:46:44;;;;;;;31.10;24.02;;;;;;;-143.10;100.00;51089.00;4765070;30;20377;-68
2022/07/09 02:49:34;;;;;;;32.97;24.50;;;;;;;-143.10;96.74;51063.53;4765220;30;20490;-68
2022/07/09 02:52:17;;;;;;;29.35;23.40;;;;;;;-143.10;97.07;51065.50;4765345;30;20083;-67
2022/07/09 02:55:14;;;;;;;26.40;21.45;;;;;;;-143.10;93.74;51034.19;4765464;30;20076;-67
2022/07/09 02:58:03;;;;;;;28.83;21.05;;;;;;;-143.10;95.79;51073.34;4765159;30;20493;-68
2022/07/09 03:00:53;;;;;;;29.45;21.88;;;;;;;-143.10;97.73;51053.75;4764901;30;20273;-67
2022/07/09 03:03:43;;;;;;;23.83;20.88;;;;;;;-143.10;95.12;51051.78;4782741;30;20067;-67
2022/07/09 03:06:26;;;;;;;26.63;20.77;;;;;;;-143.10;93.88;51057.66;4783224;30;20629;-67
2022/07/09 03:09:22;;;;;;;21.75;19.45;;;;;;;-143.10;91.74;51073.34;4782255;30;20078;-67
2022/07/09 03:11:58;;;;;;;24.40;20.33;;;;;;;-143.10;90.77;51045.91;4757340;30;20071;-67
2022/07/09 03:14:48;;;;;;;25.60;19.95;;;;;;;-143.10;88.42;51059.63;4799639;29;20507;-69
2022/07/09 03:17:39;;;;;;;23.73;18.88;;;;;;;-143.10;88.95;51020.47;4799413;29;20330;-67
2022/07/09 03:20:35;;;;;;;21.60;17.55;;;;;;;-143.10;82.78;51032.22;4800444;29;20176;-67
2022/07/09 03:23:13;;;;;;;26.40;17.75;;;;;;;-143.10;83.64;51026.34;4800805;29;20082;-68
2022/07/09 03:26:11;;;;;;;20.52;17.50;;;;;;;-143.10;84.53;51043.97;4801031;29;20763;-68
2022/07/09 03:28:47;;;;;;;20.30;16.75;;;;;;;-143.10;81.45;51057.66;4791786;29;20237;-68
2022/07/09 03:31:37;;;;;;;;;;;;;;;-143.10;80.97;51059.63;4765554;30;20135;-68
2022/07/09 03:34:21;;;;;;;18.23;15.67;;;;;;;-143.10;77.36;51040.03;4776818;29;19989;-69
2022/07/09 03:37:10;;;;;;;16.40;14.48;;;;;;;-143.10;79.36;51045.91;4781554;30;20074;-66
2022/07/09 03:39:53;;;;;;;19.15;14.07;;;;;;;-143.10;75.68;51018.50;4783062;29;20508;-67
2022/07/09 03:42:43;;;;;;;15.45;13.73;;;;;;;-143.10;75.62;51042.00;4781882;30;20075;-67
2022/07/09 03:45:33;;;;;;;17.65;15.10;;;;;;;-143.10;78.91;51010.69;4782262;30;20283;-67
2022/07/09 03:48:23;;;;;;;20.10;15.27;;;;;;;-143.10;77.59;51022.44;4768989;29;20086;-66
2022/07/09 03:51:06;;;;;;;19.00;15.82;;;;;;;-143.10;75.27;51043.97;4781531;29;20071;-66
2022/07/09 03:53:58;;;;;;;19.85;14.77;;;;;;;-143.10;79.82;51034.19;4781273;29;21490;-68
2022/07/09 03:56:56;;;;;;;17.20;15.10;;;;;;;-143.10;78.00;51006.75;4782019;29;20058;-68
2022/07/09 03:59:52;;;;;;;22.58;16.50;;;;;;;-143.10;74.32;50998.94;4781332;29;21265;-67
2022/07/09 04:02:39;;;;;;;18.33;15.10;;;;;;;-143.10;77.05;51038.09;4792849;29;20309;-67
2022/07/09 04:05:30;;;;;;;21.33;15.23;;;;;;;-143.10;73.90;50998.94;4782538;30;20074;-67
2022/07/09 04:08:12;;;;;;;22.17;15.90;;;;;;;-143.10;75.19;50995.03;4779484;29;20100;-68
2022/07/09 04:11:08;;;;;;;24.27;16.10;;;;;;;-143.10;72.00;51022.44;4798552;29;20080;-68
2022/07/09 04:13:45;;;;;;;23.17;15.98;;;;;;;-143.10;75.67;51008.72;4799998;29;20078;-66
2022/07/09 04:16:40;;;;;;;;;;;;;;;-143.10;72.82;51010.69;4800797;29;20054;-67
2022/07/09 04:19:16;;;;;;;26.70;16.95;;;;;;;-143.10;73.44;51020.47;4800105;29;19972;-67
2022/07/09 04:22:06;;;;;;;;;;;;;;;-143.10;73.68;51006.75;4801178;29;20074;-67
2022/07/09 04:24:54;;;;;;;17.83;15.38;;;;;;;-143.10;75.47;51028.31;4799956;29;20391;-67
2022/07/09 04:27:44;;;;;;;15.35;13.70;;;;;;;-143.10;74.34;51006.75;4788655;29;20326;-67
2022/07/09 04:30:28;;;;;;;26.05;15.40;;;;;;;-143.10;76.46;51020.47;4789613;30;20145;-66
2022/07/09 04:33:18;;;;;;;18.90;14.20;;;;;;;-143.10;73.82;50996.97;4787342;30;20054;-67
2022/07/09 04:36:06;;;;;;;15.38;13.27;;;;;;;-143.10;74.98;51032.22;4784635;29;20799;-68
2022/07/09 04:38:50;;;;;;;14.70;13.02;;;;;;;-143.10;76.24;51006.75;4780916;29;21574;-66
2022/07/09 04:41:40;;;;;;;20.65;14.77;;;;;;;-143.10;77.59;51020.47;4776950;29;20087;-66
2022/07/09 04:44:23;;;;;;;17.08;14.07;;;;;;;-143.10;81.17;51038.09;4781287;29;20071;-68
2022/07/09 04:47:13;;;;;;;15.68;13.38;;;;;;;-143.10;76.83;51016.56;4763754;30;20083;-67
2022/07/09 04:49:56;;;;;;;15.63;12.32;;;;;;;-143.10;75.92;51022.44;4763546;30;20083;-67
2022/07/09 04:52:47;;;;;;;15.80;13.52;;;;;;;-143.10;74.35;50987.19;4777085;29;21401;-67
2022/07/09 04:55:30;;;;;;;18.27;12.30;;;;;;;-143.10;75.97;51014.59;4786389;29;20066;-67
2022/07/09 04:58:18;;;;;;;14.90;12.95;;;;;;;-143.10;78.11;51053.75;4779911;29;20119;-67
2022/07/09 05:01:08;;;;;;;19.35;13.85;;;;;;;-143.10;74.28;51042.00;4780742;30;20070;-66
2022/07/09 05:03:59;;;;;;;17.73;12.77;;;;;;;-143.10;80.59;51028.31;4781174;30;20520;-66
2022/07/09 05:06:48;;;;;;;56.13;11.13;;;;;;;-143.10;72.23;51057.66;4776533;29;20485;-65
2022/07/09 05:09:38;;;;;;;81.97;9.82;;;;;;;-143.10;75.67;51061.59;4770190;29;20371;-66
2022/07/09 05:12:29;;;;;;;83.25;9.30;;;;;;;-143.10;77.54;51079.19;4783708;29;20082;-66
2022/07/09 05:15:13;;;;;;;40.25;6.22;;;;;;;-143.10;79.10;51085.06;4776467;29;20067;-66
2022/07/09 05:18:03;;;;;;;52.95;7.05;;;;;;;-143.10;79.99;51089.00;4778834;29;20808;-67
2022/07/09 05:20:46;;;;;;;53.80;5.97;;;;;;;-143.10;81.87;51124.22;4779856;30;20421;-67
2022/07/09 05:23:35;;;;;;;51.92;7.35;;;;;;;-143.10;86.18;51134.03;4779473;29;20671;-67
2022/07/09 05:26:19;;;;;;;34.88;4.30;;;;;;;-143.10;89.70;51104.66;4783496;29;20168;-65
2022/07/09 05:29:08;;;;;;;14.95;3.35;;;;;;;-143.10;92.85;51116.41;4778437;29;20657;-64
2022/07/09 05:31:51;;;;;;;13.18;2.67;;;;;;;-143.10;94.19;51132.06;4776436;29;20106;-66
2022/07/09 05:34:40;;;;;;;8.65;3.40;;;;;;;-143.10;96.39;51106.63;4777316;29;20079;-66
2022/07/09 05:37:23;;;;;;;15.20;2.67;;;;;;;-143.10;97.79;51057.66;4777617;29;20075;-64
2022/07/09 05:40:13;;;;;;;12.98;2.90;;;;;;;-143.10;97.80;51139.91;4779799;29;20140;-65
2022/07/09 05:42:55;;;;;;;10.38;2.50;;;;;;;-143.10;98.81;51083.13;4786761;29;20171;-65
2022/07/09 05:45:45;;;;;;;9.43;2.78;;;;;;;-143.10;100.00;51096.81;4780707;29;20082;-65
2022/07/09 05:48:28;;;;;;;9.93;2.80;;;;;;;-143.10;100.00;51116.41;4444221;29;10000014;-65
2022/07/09 05:51:24;;;;;;;8.40;3.33;;;;;;;-143.10;100.00;51110.53;4779445;29;20082;-65
2022/07/09 05:54:01;;;;;;;10.40;3.55;;;;;;;-143.10;100.00;51137.94;4781561;29;20075;-66
2022/07/09 05:56:58;;;;;;;5.88;3.15;;;;;;;-143.10;100.00;51134.03;4771213;29;20330;-66
2022/07/09 05:59:46;;;;;;;8.35;3.30;;;;;;;-143.10;100.00;51104.66;4767974;30;20484;-66
2022/07/09 06:02:37;;;;;;;11.18;3.92;;;;;;;-143.10;100.00;51094.88;4783040;29;20365;-65
2022/07/09 06:05:21;;;;;;;6.10;3.13;;;;;;;-143.10;100.00;51143.81;4781424;29;20059;-66
2022/07/09 06:08:11;;;;;;;5.38;3.22;;;;;;;-143.10;100.00;51126.19;4782039;30;20071;-67
2022/07/09 06:10:53;;;;;;;7.40;3.03;;;;;;;-143.10;100.00;51122.28;4778082;30;20082;-65
2022/07/09 06:13:44;;;;;;;6.07;3.55;;;;;;;-143.10;100.00;51102.69;4781901;29;21496;-66
2022/07/09 06:16:27;;;;;;;6.72;3.67;;;;;;;-143.10;100.00;51135.97;4778554;29;20148;-65
2022/07/09 06:19:17;;;;;;;11.15;5.07;;;;;;;-143.10;100.00;51128.16;4784026;29;20540;-65
2022/07/09 06:22:07;;;;;;;12.63;4.72;;;;;;;-143.10;100.00;51114.44;4800733;29;20079;-65
2022/07/09 06:24:55;;;;;;;11.27;5.53;;;;;;;-143.10;100.00;51114.44;4777572;29;21423;-66
2022/07/09 06:27:40;;;;;;;9.32;5.38;;;;;;;-143.10;100.00;51114.44;4781697;29;20433;-65
2022/07/09 06:30:30;;;;;;;8.70;6.25;;;;;;;-143.10;100.00;51108.56;4779133;29;20079;-65
2022/07/09 06:33:14;;;;;;;6.88;5.20;;;;;;;-143.10;100.00;51126.19;4781412;29;20436;-65
2022/07/09 06:36:04;;;;;;;8.65;5.13;;;;;;;-143.10;100.00;51108.56;4780230;29;20071;-65
2022/07/09 06:41:53;;;;;;;11.48;6.82;;;;;;;-143.10;100.00;51092.91;4779865;29;20441;-65
2022/07/09 06:44:37;;;;;;;12.73;7.07;;;;;;;-143.10;100.00;51100.75;4780713;29;20159;-64
2022/07/09 06:47:26;;;;;;;10.55;6.68;;;;;;;-143.10;100.00;51120.31;4778068;29;20154;-65
2022/07/09 06:50:10;;;;;;;13.45;6.90;;;;;;;-143.10;100.00;51114.44;4781603;29;20165;-66
2022/07/09 06:52:59;;;;;;;10.57;6.57;;;;;;;-143.10;100.00;51120.31;4780815;29;20066;-66
2022/07/09 06:55:43;;;;;;;14.15;6.70;;;;;;;-143.10;100.00;51110.53;4785504;29;20505;-65
2022/07/09 06:58:40;;;;;;;12.32;6.72;;;;;;;-143.10;100.00;51100.75;4782272;29;20071;-66
2022/07/09 07:01:29;;;;;;;17.65;7.22;;;;;;;-143.10;100.00;51079.19;4762962;30;20485;-65
2022/07/09 07:04:20;;;;;;;21.90;8.30;;;;;;;-143.10;100.00;51092.91;4754332;30;20139;-65
2022/07/09 07:07:03;;;;;;;9.80;7.38;;;;;;;-143.10;100.00;51073.34;4764890;30;20441;-65
2022/07/09 07:09:52;;;;;;;13.27;7.57;;;;;;;-143.10;100.00;51073.34;4746895;30;20403;-65
2022/07/09 07:12:35;;;;;;;15.18;8.07;;;;;;;-143.10;100.00;51090.94;4761826;29;21499;-65
2022/07/09 07:15:25;;;;;;;11.05;7.35;;;;;;;-143.10;97.99;51087.03;4764307;30;20071;-65
2022/07/09 07:18:08;;;;;;;10.90;7.10;;;;;;;-143.10;100.00;51089.00;4763741;29;20083;-67
2022/07/09 07:20:58;;;;;;;11.00;6.00;;;;;;;-143.10;100.00;51100.75;4753266;30;20559;-64
2022/07/09 07:23:41;;;;;;;11.63;6.72;;;;;;;-143.10;100.00;51087.03;4761343;30;20348;-65
2022/07/09 07:26:32;;;;;;;18.38;7.97;;;;;;;-143.10;100.00;51100.75;4765000;30;20079;-65
2022/07/09 07:29:15;;;;;;;15.15;8.35;;;;;;;-143.10;100.00;51069.41;4758995;30;20094;-64
2022/07/09 07:32:05;;;;;;;12.15;7.15;;;;;;;-143.10;100.00;51085.06;4761302;30;20075;-64
2022/07/09 07:35:02;;;;;;;11.23;5.72;;;;;;;-143.10;100.00;51104.66;4752074;30;20071;-68
2022/07/09 07:37:38;;;;;;;10.10;5.30;;;;;;;-143.10;100.00;51089.00;4748914;30;20488;-65
2022/07/09 07:40:28;;;;;;;11.55;6.00;;;;;;;-143.10;100.00;51118.34;4763418;30;20138;-64
2022/07/09 07:43:12;;;;;;;11.90;5.97;;;;;;;-143.10;100.00;51073.34;4760243;29;20136;-66
2022/07/09 07:46:01;;;;;;;9.95;6.22;;;;;;;-143.10;100.00;51069.41;4763913;30;20072;-64
2022/07/09 07:48:48;;;;;;;9.20;6.15;;;;;;;-143.10;100.00;51065.50;4768106;30;20547;-67
2022/07/09 07:51:38;;;;;;;10.65;6.70;;;;;;;-143.10;100.00;51100.75;4763225;30;20535;-66
2022/07/09 07:54:21;;;;;;;15.55;6.53;;;;;;;-143.10;100.00;51065.50;4759218;30;20086;-65
2022/07/09 07:57:11;;;;;;;13.88;6.78;;;;;;;-143.10;100.00;51081.16;4767776;29;20071;-66
2022/07/09 08:00:09;;;;;;;13.07;7.28;;;;;;;-143.10;100.00;51063.53;4772884;29;20082;-66
2022/07/09 08:03:05;;;;;;;11.32;6.57;;;;;;;-143.10;100.00;51096.81;4778874;29;20075;-66
2022/07/09 08:05:55;;;;;;;15.32;7.50;;;;;;;-143.10;100.00;51073.34;4771624;29;20408;-66
2022/07/09 08:08:45;;;;;;;10.30;6.32;;;;;;;-143.10;100.00;51098.78;4778136;29;21584;-65
2022/07/09 08:11:29;;;;;;;9.85;7.45;;;;;;;-143.10;99.40;51102.69;4787489;29;20083;-66
2022/07/09 08:14:18;;;;;;;9.23;6.70;;;;;;;-143.10;98.62;51067.47;4777715;29;20476;-65
2022/07/09 08:17:08;;;;;;;11.13;7.53;;;;;;;-143.10;100.00;51092.91;4779129;29;20108;-65
2022/07/09 08:19:57;;;;;;;16.67;7.90;;;;;;;-143.10;100.00;51087.03;4783637;29;20457;-66
2022/07/09 08:22:54;;;;;;;13.73;8.40;;;;;;;-143.10;100.00;51112.50;4779387;29;20218;-64
2022/07/09 08:25:30;;;;;;;13.05;8.77;;;;;;;-143.10;100.00;51069.41;4777581;29;22513;-64
2022/07/09 08:28:28;;;;;;;13.20;9.80;;;;;;;-143.10;100.00;51100.75;4779924;30;20165;-65
2022/07/09 08:31:04;;;;;;;15.13;10.13;;;;;;;-143.10;100.00;51094.88;4774116;29;20147;-69
2022/07/09 08:34:01;;;;;;;17.23;9.70;;;;;;;-143.10;100.00;51081.16;4766266;29;20067;-66
2022/07/09 08:36:36;;;;;;;23.90;11.00;;;;;;;-143.10;100.00;51089.00;4773673;29;20136;-67
2022/07/09 08:39:27;;;;;;;19.17;11.73;;;;;;;-143.10;100.00;51114.44;4778089;29;20082;-67
2022/07/09 08:42:17;;;;;;;15.93;10.98;;;;;;;-143.10;100.00;51079.19;4761025;30;20109;-66
2022/07/09 08:45:01;;;;;;;16.35;11.85;;;;;;;-143.10;100.00;51075.28;4759413;30;20075;-67
2022/07/09 08:47:51;;;;;;;16.13;10.68;;;;;;;-143.10;100.00;51104.66;4760570;30;20287;-67
2022/07/09 08:50:35;;;;;;;17.27;11.35;;;;;;;-143.10;100.00;51077.25;4744906;30;20161;-68
2022/07/09 08:53:27;;;;;;;12.75;9.65;;;;;;;-143.10;100.00;51106.63;4762572;30;20152;-67
2022/07/09 08:56:11;;;;;;;14.98;8.98;;;;;;;-143.10;100.00;51083.13;4762656;30;20692;-67
2022/07/09 08:59:01;;;;;;;12.32;8.98;;;;;;;-143.10;100.00;51073.34;4764201;30;20071;-68
2022/07/09 09:01:51;;;;;;;10.35;8.50;;;;;;;-143.10;100.00;51067.47;4764619;30;20221;-67
2022/07/09 09:04:48;;;;;;;16.73;9.63;;;;;;;-143.10;100.00;51092.91;4779851;30;20326;-68
2022/07/09 09:07:25;;;;;;;17.52;9.60;;;;;;;-143.10;100.00;51077.25;4784487;29;20709;-67
2022/07/09 09:10:31;;;;;;;14.20;8.80;;;;;;;-143.10;100.00;51100.75;4781716;30;20147;-67
2022/07/09 09:13:16;;;;;;;15.25;10.88;;;;;;;-143.10;100.00;51096.81;4781374;30;20063;-66
2022/07/09 09:16:16;;;;;;;15.52;9.65;;;;;;;-143.10;100.00;51104.66;4798150;29;20070;-66
2022/07/09 09:18:53;;;;;;;15.50;10.18;;;;;;;-143.10;100.00;51077.25;4798871;29;20357;-67
2022/07/09 09:21:43;;;;;;;16.75;9.95;;;;;;;-143.10;100.00;51124.22;4798184;29;20101;-67
2022/07/09 09:24:34;;;;;;;16.30;9.27;;;;;;;-143.10;100.00;51089.00;4783459;29;20058;-68
2022/07/09 09:27:17;;;;;;;15.93;9.45;;;;;;;-143.10;100.00;51065.50;4798453;29;20151;-68
2022/07/09 09:30:06;;;;;;;15.75;10.55;;;;;;;-143.10;100.00;51110.53;4785416;29;20108;-67
2022/07/09 09:33:03;;;;;;;11.45;8.40;;;;;;;-143.10;100.00;51087.03;4780129;30;20079;-68
2022/07/09 09:35:52;;;;;;;11.02;9.43;;;;;;;-143.10;100.00;51089.00;4780534;29;20339;-67
2022/07/09 09:38:35;;;;;;;14.40;9.65;;;;;;;-143.10;100.00;51108.56;4764787;30;20539;-67
2022/07/09 09:41:34;;;;;;;13.68;10.45;;;;;;;-143.10;100.00;51089.00;4780177;30;20161;-67
2022/07/09 09:44:30;;;;;;;14.65;10.75;;;;;;;-143.10;100.00;51085.06;4780902;30;20071;-68
2022/07/09 09:47:22;;;;;;;17.10;10.10;;;;;;;-143.10;100.00;51083.13;4780684;29;20091;-68
2022/07/09 09:50:10;;;;;;;15.98;11.57;;;;;;;-143.10;100.00;51092.91;4780630;30;20075;-68
2022/07/09 09:53:00;;;;;;;14.75;11.43;;;;;;;-143.10;100.00;51079.19;4780279;30;20556;-68
2022/07/09 09:55:46;;;;;;;18.42;11.25;;;;;;;-143.10;100.00;51114.44;4780130;30;20105;-67
2022/07/09 09:58:39;;;;;;;18.45;11.38;;;;;;;-143.10;100.00;51085.06;4780052;30;20167;-68
2022/07/09 10:01:29;;;;;;;16.85;12.35;;;;;;;-143.10;100.00;51089.00;4787632;29;20082;-67
2022/07/09 10:04:18;;;;;;;19.17;11.80;;;;;;;-143.10;100.00;51096.81;4787273;29;20090;-66
2022/07/09 10:07:01;;;;;;;20.17;11.85;;;;;;;-143.10;100.00;51092.91;4780797;30;20142;-68
2022/07/09 10:10:04;;;;;;;14.90;11.43;;;;;;;-143.10;100.00;51096.81;4779345;30;21406;-68
2022/07/09 10:12:47;;;;;;;16.98;11.30;;;;;;;-143.10;100.00;51085.06;4779885;30;20231;-68
2022/07/09 10:15:36;;;;;;;15.18;11.05;;;;;;;-143.10;100.00;51083.13;4793504;29;20071;-68
2022/07/09 10:18:22;;;;;;;19.48;11.27;;;;;;;-143.10;100.00;51067.47;4798419;29;20146;-67
2022/07/09 10:21:18;;;;;;;15.57;11.27;;;;;;;-143.10;100.00;51098.78;4798146;29;20079;-66
2022/07/09 10:23:54;;;;;;;18.27;12.13;;;;;;;-143.10;100.00;51087.03;4799178;29;20484;-66
2022/07/09 10:26:48;;;;;;;16.92;12.00;;;;;;;-143.10;100.00;51085.06;4798097;29;20153;-67
2022/07/09 10:29:32;;;;;;;18.67;13.38;;;;;;;-143.10;100.00;51089.00;4798153;29;20085;-66
2022/07/09 10:32:32;;;;;;;20.05;14.27;;;;;;;-143.10;100.00;51112.50;4798102;29;20140;-66
2022/07/09 10:35:15;;;;;;;21.75;14.77;;;;;;;-143.10;100.00;51085.06;4798496;29;20490;-67
2022/07/09 10:38:05;;;;;;;20.98;13.48;;;;;;;-143.10;100.00;51085.06;4764109;30;20096;-67
2022/07/09 10:41:04;;;;;;;20.25;13.82;;;;;;;-143.10;100.00;51075.28;4765230;30;20083;-67
2022/07/09 10:43:54;;;;;;;21.73;13.95;;;;;;;-143.10;100.00;51110.53;4765286;30;20434;-66
2022/07/09 10:46:44;;;;;;;20.90;13.90;;;;;;;-143.10;100.00;51110.53;4765509;30;21324;-67
2022/07/09 10:49:28;;;;;;;18.80;13.30;;;;;;;-143.10;100.00;51098.78;4765256;30;20493;-69
2022/07/09 10:52:17;;;;;;;21.83;15.18;;;;;;;-143.10;100.00;51132.06;4765468;30;20079;-68
2022/07/09 10:55:14;;;;;;;22.35;16.23;;;;;;;-143.10;100.00;51079.19;4765639;30;20080;-66
2022/07/09 10:57:51;;;;;;;20.42;16.00;;;;;;;-143.10;100.00;51098.78;4779669;30;20222;-70
2022/07/09 11:00:47;;;;;;;22.60;16.70;;;;;;;-143.10;100.00;51100.75;4782901;30;21315;-67
2022/07/09 11:03:44;;;;;;;21.88;16.58;;;;;;;-143.10;100.00;51120.31;4782474;29;20252;-69
2022/07/09 11:06:45;;;;;;;26.75;17.02;;;;;;;-143.10;100.00;51089.00;4782857;30;20352;-67
2022/07/09 11:09:34;;;;;;;22.08;17.88;;;;;;;-143.10;100.00;51108.56;4782663;30;20167;-67
2022/07/09 11:12:22;;;;;;;29.58;19.20;;;;;;;-143.10;100.00;51096.81;4787603;29;20078;-69
2022/07/09 11:15:27;;;;;;;30.52;19.42;;;;;;;-143.10;100.00;51089.00;4792501;29;20078;-68
2022/07/09 11:18:15;;;;;;;29.17;19.23;;;;;;;-143.10;100.00;51108.56;4783185;30;20079;-67
2022/07/09 11:21:05;;;;;;;29.38;22.00;;;;;;;-143.10;100.00;51120.31;4782482;30;20083;-67
2022/07/09 11:23:49;;;;;;;23.67;19.42;;;;;;;-143.10;100.00;51083.13;4778075;30;21532;-68
2022/07/09 11:26:39;;;;;;;26.10;19.65;;;;;;;-143.10;100.00;51100.75;4796366;29;21777;-69
2022/07/09 11:29:36;;;;;;;27.50;19.48;;;;;;;-143.10;100.00;51089.00;4792404;29;20078;-66
2022/07/09 11:32:17;;;;;;;24.55;18.48;;;;;;;-143.10;100.00;51085.06;4780310;29;20075;-67
2022/07/09 11:35:07;;;;;;;26.73;17.13;;;;;;;-143.10;100.00;51110.53;4786740;29;20108;-67
2022/07/09 11:37:52;;;;;;;26.10;17.48;;;;;;;-143.10;100.00;51096.81;4781742;29;21230;-67
2022/07/09 11:40:42;;;;;;;18.70;16.17;;;;;;;-143.10;100.00;51116.41;4779870;29;20079;-67
2022/07/09 11:43:25;;;;;;;22.77;16.23;;;;;;;-143.10;100.00;51098.78;4786823;29;20559;-67
2022/07/09 11:46:20;;;;;;;21.35;16.42;;;;;;;-143.10;100.00;51106.63;4782871;29;20730;-67
2022/07/09 11:49:09;;;;;;;22.17;16.65;;;;;;;-143.10;100.00;51096.81;4783733;29;20075;-67
2022/07/09 11:51:52;;;;;;;21.20;15.75;;;;;;;-143.10;100.00;51096.81;4107642;29;10000147;-65
2022/07/09 11:54:42;;;;;;;20.60;16.10;;;;;;;-143.10;100.00;51128.16;4779089;30;20145;-65
2022/07/09 11:57:25;;;;;;;24.10;16.13;;;;;;;-143.10;100.00;51077.25;4780313;30;20067;-63
2022/07/09 12:00:27;;;;;;;19.35;15.90;;;;;;;-143.10;100.00;51092.91;4779179;29;20303;-64
2022/07/09 12:03:17;;;;;;;22.58;16.42;;;;;;;-143.10;100.00;51132.06;4776361;29;20071;-66
2022/07/09 12:06:15;;;;;;;22.80;16.63;;;;;;;-143.10;100.00;51130.09;4765580;30;20154;-66
2022/07/09 12:09:05;;;;;;;20.00;16.23;;;;;;;-143.10;100.00;51120.31;4778355;29;20126;-66
2022/07/09 12:11:49;;;;;;;19.70;15.85;;;;;;;-143.10;100.00;51114.44;4777698;29;20400;-66
2022/07/09 12:14:38;;;;;;;21.48;16.92;;;;;;;-143.10;100.00;51108.56;4784649;29;20341;-67
2022/07/09 12:17:33;;;;;;;20.73;16.23;;;;;;;-143.10;100.00;51077.25;4796521;29;20138;-66
2022/07/09 12:20:28;;;;;;;19.98;16.33;;;;;;;-143.10;100.00;51104.66;4788605;29;20137;-66
2022/07/09 12:23:10;;;;;;;23.25;16.58;;;;;;;-143.10;100.00;51124.22;4777301;29;20507;-66
2022/07/09 12:25:59;;;;;;;22.05;15.30;;;;;;;-143.10;100.00;51100.75;4779548;29;20167;-66
2022/07/09 12:28:41;;;;;;;19.83;15.68;;;;;;;-143.10;100.00;51116.41;4746286;30;20149;-66
2022/07/09 12:31:45;;;;;;;21.15;15.80;;;;;;;-143.10;100.00;51116.41;4763835;29;21481;-66
2022/07/09 12:34:23;;;;;;;17.95;14.30;;;;;;;-143.10;100.00;51096.81;4767259;29;20166;-67
2022/07/09 12:37:20;;;;;;;18.83;14.07;;;;;;;-143.10;100.00;51110.53;4760168;30;20096;-66